Accueil
METAR-TAF:

METAR-TAF

Aéroports :

Brive-la-Gaillarde, France

Aéroport de Brive-Vallée de la Dordogne

latitude: 45-02-28N, longitude: 001-28-59E, altitude: 311 m

Observation

Le bulletin a été fait il y a 14 minutes, à 10:00 UTC
Vent 8 kt de nord/nord-ouest, variant entre ouest et nord/nord-est
Température 10°C
Humidité 43%
Pression 1019 hPa
Visibilité 10 km ou plus
Quelques nuages à une hauteur de 3900 ft

METAR: LFSL 281000Z AUTO 33008KT 270V020 9999 FEW039 10/M02 Q1019 NOSIG

Heure: 12:14 (10:14 UTC)

Prévision

Le bulletin a été fait il y a 2 heures et 14 minutes, à 08:00 UTC
Prévision valable du 28 à 09 UTC au 28 à 18 UTC
Vent 4 kt de ouest/nord-ouest
Visibilité 10 km ou plus
pas de nuages en-dessous de 1500 mètres et pas de cumulonimbus.

TAF: LFSL 280800Z 2809/2818 30004KT CAVOK

Observations et prévisions météorologiques de plus de 4000 aéroports (messages METAR et TAF).

Les stations disponibles sont représentées par des disques jaunes et rouges sur la carte.

Passer la souris dessus pour voir le nom de la station.

Cliquer dessus pour voir les observations et prévisions météorologiques.

Pour changer de carte: cliquez sur les boutons verts avec une croix noire pour zoomer, sur le bouton vert avec un tiret pour effectuer un zoom arrière, ou sur les flèches vertes pour les cartes adjacentes.


METAR-TAF: